Time;durP1;ratioP1;P1;durP2;ratioP2;P2;SDS_P1;SDS_P2;PMS_P1;PMS_P2;Temp;Humidity;BMP_temperature;BMP_pressure;BME280_temperature;BME280_humidity;BME280_pressure;Samples;Min_cycle;Max_cycle;Signal;HPM_P1;HPM_P2
2022/03/02 00:02:16;;;;;;;20.27;18.67;;;-0.60;16.60;;;;;;4991340;28;20425;-69
2022/03/02 00:04:41;;;;;;;19.23;17.67;;;-0.70;16.30;;;;;;4992078;28;20424;-68
2022/03/02 00:07:07;;;;;;;22.50;20.53;;;-0.60;16.50;;;;;;4974734;28;20193;-69
2022/03/02 00:09:33;;;;;;;21.10;18.90;;;-0.80;16.40;;;;;;4976600;28;20185;-69
2022/03/02 00:11:58;;;;;;;33.07;20.33;;;-0.80;16.50;;;;;;4976319;28;20268;-69
2022/03/02 00:14:24;;;;;;;23.43;21.43;;;-1.00;17.20;;;;;;4975921;28;20543;-68
2022/03/02 00:16:50;;;;;;;21.00;19.00;;;-1.20;17.80;;;;;;4975550;28;20432;-69
2022/03/02 00:19:15;;;;;;;20.10;18.53;;;-1.20;18.00;;;;;;4976322;28;20236;-69
2022/03/02 00:21:41;;;;;;;22.70;20.70;;;-1.10;17.80;;;;;;4975955;28;20232;-69
2022/03/02 00:24:08;;;;;;;23.53;21.37;;;-1.40;18.30;;;;;;4975563;28;20174;-69
2022/03/02 00:26:34;;;;;;;21.45;19.65;;;-1.50;18.90;;;;;;4976261;28;20256;-69
2022/03/02 00:29:00;;;;;;;19.73;17.83;;;-1.40;18.50;;;;;;4976219;28;20213;-69
2022/03/02 00:31:27;;;;;;;23.92;21.65;;;-1.30;18.00;;;;;;4976386;28;20671;-69
2022/03/02 00:33:52;;;;;;;23.00;20.73;;;-1.20;17.50;;;;;;4976490;28;20664;-69
2022/03/02 00:36:18;;;;;;;22.20;19.93;;;-1.30;17.50;;;;;;4976199;28;20180;-69
2022/03/02 00:38:44;;;;;;;23.00;20.67;;;-1.30;17.20;;;;;;4976476;28;20554;-70
2022/03/02 00:41:09;;;;;;;20.30;18.47;;;-1.30;17.50;;;;;;4976552;28;20516;-69
2022/03/02 00:43:35;;;;;;;24.67;21.87;;;-1.40;17.70;;;;;;4976255;28;20186;-69
2022/03/02 00:46:00;;;;;;;23.43;20.73;;;-1.50;17.90;;;;;;4976431;28;20660;-69
2022/03/02 00:48:26;;;;;;;24.90;21.23;;;-1.50;18.10;;;;;;4976474;28;20194;-69
2022/03/02 00:50:53;;;;;;;25.90;21.10;;;-1.60;18.40;;;;;;4974935;28;20178;-69
2022/03/02 00:53:19;;;;;;;24.75;21.25;;;-1.70;18.70;;;;;;4975693;28;20424;-69
2022/03/02 00:55:44;;;;;;;24.33;21.67;;;-1.70;18.90;;;;;;4975808;28;20205;-68
2022/03/02 00:58:10;;;;;;;22.23;19.83;;;-1.60;18.60;;;;;;4990067;28;20217;-69
2022/03/02 01:00:36;;;;;;;23.27;21.17;;;-1.40;18.50;;;;;;4975742;28;20236;-69
2022/03/02 01:03:02;;;;;;;21.30;19.45;;;-1.40;17.70;;;;;;4975947;28;20643;-69
2022/03/02 01:05:27;;;;;;;27.63;23.70;;;-1.40;17.70;;;;;;4975929;28;20236;-69
2022/03/02 01:07:53;;;;;;;23.40;21.10;;;-1.30;17.70;;;;;;4974675;28;20394;-69
2022/03/02 01:10:19;;;;;;;23.93;21.80;;;-1.30;17.50;;;;;;4975316;28;20201;-69
2022/03/02 01:12:45;;;;;;;22.57;20.27;;;-1.30;17.10;;;;;;4974748;28;20190;-69
2022/03/02 01:15:12;;;;;;;22.17;19.90;;;-1.20;17.40;;;;;;4973541;28;20471;-69
2022/03/02 01:17:38;;;;;;;22.55;20.23;;;-1.10;17.20;;;;;;4974535;28;20272;-68
2022/03/02 01:20:06;;;;;;;24.77;22.08;;;-1.00;16.90;;;;;;4989854;28;20194;-69
2022/03/02 01:22:32;;;;;;;22.85;20.85;;;-1.00;16.60;;;;;;4974789;28;20165;-68
2022/03/02 01:24:57;;;;;;;25.73;22.50;;;-1.00;16.30;;;;;;4973448;28;20185;-69
2022/03/02 01:27:23;;;;;;;24.90;19.97;;;-1.00;16.30;;;;;;4974487;28;20443;-68
2022/03/02 01:29:51;;;;;;;21.20;19.33;;;-1.00;16.30;;;;;;4974623;28;20213;-69
2022/03/02 01:32:17;;;;;;;29.10;22.25;;;-0.90;16.40;;;;;;4975170;28;20177;-68
2022/03/02 01:34:42;;;;;;;23.13;20.83;;;-1.20;16.20;;;;;;4974593;28;20288;-68
2022/03/02 01:37:08;;;;;;;24.73;21.67;;;-1.40;17.10;;;;;;4974762;28;20759;-68
2022/03/02 01:39:33;;;;;;;28.17;22.33;;;-1.30;16.70;;;;;;4975153;28;20668;-68
2022/03/02 01:41:59;;;;;;;25.13;22.80;;;-1.20;16.60;;;;;;4974926;28;20647;-69
2022/03/02 01:44:25;;;;;;;24.63;22.00;;;-1.10;16.20;;;;;;4974430;28;20178;-69
2022/03/02 01:46:51;;;;;;;24.13;21.63;;;-1.10;16.20;;;;;;4974079;28;20197;-69
2022/03/02 01:49:16;;;;;;;24.73;22.23;;;-1.20;16.30;;;;;;4974634;28;20746;-69
2022/03/02 01:51:42;;;;;;;21.83;19.63;;;-1.20;16.20;;;;;;4974190;28;20429;-69
2022/03/02 01:54:08;;;;;;;23.73;21.67;;;-1.20;16.20;;;;;;4974174;28;20595;-69
2022/03/02 01:56:35;;;;;;;22.55;20.40;;;-1.30;16.30;;;;;;4973785;28;20196;-70
2022/03/02 01:59:02;;;;;;;20.52;18.55;;;-1.30;16.60;;;;;;4974075;28;20177;-69
2022/03/02 02:01:28;;;;;;;21.10;19.30;;;-1.30;16.20;;;;;;4974240;28;20184;-69
2022/03/02 02:03:53;;;;;;;23.27;20.80;;;-1.30;16.10;;;;;;4972599;28;20186;-69
2022/03/02 02:06:19;;;;;;;24.33;20.87;;;-1.30;16.90;;;;;;4973447;28;20410;-69
2022/03/02 02:08:45;;;;;;;22.53;20.43;;;-1.20;16.60;;;;;;4972768;28;20516;-69
2022/03/02 02:11:12;;;;;;;21.33;19.40;;;-1.10;16.20;;;;;;4973551;28;20550;-70
2022/03/02 02:13:39;;;;;;;22.25;20.10;;;-1.10;16.20;;;;;;4973546;28;20503;-69
2022/03/02 02:16:06;;;;;;;21.15;19.08;;;-1.00;16.30;;;;;;4973441;28;20185;-69
2022/03/02 02:18:33;;;;;;;20.40;18.40;;;-1.00;16.30;;;;;;4973171;28;20197;-69
2022/03/02 02:21:10;;;;;;;21.77;19.70;;;-1.20;16.20;;;;;;4973545;28;20193;-70
2022/03/02 02:23:36;;;;;;;21.23;19.08;;;-1.20;16.20;;;;;;4973683;28;20165;-69
2022/03/02 02:26:03;;;;;;;21.70;19.40;;;-1.20;16.40;;;;;;4973337;28;20184;-70
2022/03/02 02:28:30;;;;;;;20.95;18.35;;;-1.10;16.20;;;;;;4973436;28;20248;-69
2022/03/02 02:30:58;;;;;;;20.77;18.65;;;-1.10;16.20;;;;;;4973776;28;20202;-69
2022/03/02 02:33:26;;;;;;;21.58;19.30;;;-1.20;16.20;;;;;;4972194;28;20244;-69
2022/03/02 02:35:51;;;;;;;21.90;19.80;;;-1.30;16.70;;;;;;4973463;28;20219;-69
2022/03/02 02:38:18;;;;;;;20.60;18.50;;;-1.40;17.10;;;;;;4974125;28;20197;-70
2022/03/02 02:40:44;;;;;;;21.20;19.30;;;-1.30;16.80;;;;;;4973926;28;20236;-71
2022/03/02 02:43:10;;;;;;;18.63;17.03;;;-1.30;16.70;;;;;;4973333;28;20178;-70
2022/03/02 02:45:36;;;;;;;23.53;21.23;;;-1.30;16.80;;;;;;4973345;28;20252;-70
2022/03/02 02:48:04;;;;;;;19.33;17.58;;;-1.30;16.70;;;;;;4973069;28;20472;-70
2022/03/02 02:50:32;;;;;;;19.73;18.05;;;-1.40;16.80;;;;;;4973183;28;20483;-70
2022/03/02 02:53:01;;;;;;;21.08;19.05;;;-1.50;17.20;;;;;;4988030;28;20185;-70
2022/03/02 02:55:28;;;;;;;21.10;18.88;;;-1.60;17.70;;;;;;4973136;28;20698;-71
2022/03/02 02:57:55;;;;;;;19.85;18.15;;;-1.70;17.70;;;;;;4972747;28;20220;-71
2022/03/02 03:00:25;;;;;;;19.45;17.45;;;-1.70;18.30;;;;;;4973064;28;20213;-70
2022/03/02 03:02:52;;;;;;;19.02;17.42;;;-1.50;18.00;;;;;;4987991;28;20174;-70
2022/03/02 03:05:20;;;;;;;20.33;18.45;;;-1.40;17.50;;;;;;4973142;28;20198;-70
2022/03/02 03:07:47;;;;;;;21.13;19.27;;;-1.50;17.30;;;;;;4972557;28;20260;-70
2022/03/02 03:10:14;;;;;;;20.65;18.63;;;-1.70;18.00;;;;;;4972963;28;20185;-70
2022/03/02 03:12:40;;;;;;;18.98;17.13;;;-2.00;18.80;;;;;;4973134;28;20675;-70
2022/03/02 03:15:07;;;;;;;20.30;18.10;;;-2.00;19.50;;;;;;4972942;28;20209;-70
2022/03/02 03:17:33;;;;;;;19.70;17.90;;;-2.10;19.70;;;;;;4972821;28;20456;-69
2022/03/02 03:19:59;;;;;;;21.42;19.10;;;-2.20;19.70;;;;;;4973441;28;20822;-70
2022/03/02 03:22:25;;;;;;;20.08;18.13;;;-2.20;19.70;;;;;;4976697;28;20232;-70
2022/03/02 03:24:51;;;;;;;21.97;19.60;;;-2.10;19.70;;;;;;4991829;28;20655;-70
2022/03/02 03:27:16;;;;;;;22.27;18.97;;;-2.10;19.70;;;;;;4977055;28;20201;-70
2022/03/02 03:29:42;;;;;;;20.73;18.57;;;-2.00;19.60;;;;;;4992049;28;20238;-70
2022/03/02 03:32:08;;;;;;;20.43;18.40;;;-2.00;19.80;;;;;;4975532;28;20181;-70
2022/03/02 03:34:34;;;;;;;22.80;20.38;;;-2.00;19.20;;;;;;4976417;28;20200;-70
2022/03/02 03:36:59;;;;;;;21.40;18.70;;;-2.00;19.10;;;;;;4991135;28;20204;-70
2022/03/02 03:39:25;;;;;;;22.23;18.70;;;-2.00;19.00;;;;;;4976497;28;20252;-71
2022/03/02 03:41:51;;;;;;;20.83;18.73;;;-1.90;19.00;;;;;;4976262;28;20177;-70
2022/03/02 03:44:16;;;;;;;21.80;19.17;;;-1.80;18.80;;;;;;4991317;28;20185;-70
2022/03/02 03:46:42;;;;;;;20.60;18.40;;;-1.80;18.70;;;;;;4984646;23;20238;-70
2022/03/02 03:49:09;;;;;;;19.07;17.37;;;-1.80;18.70;;;;;;4956387;28;20190;-72
2022/03/02 03:51:35;;;;;;;19.30;17.27;;;-1.80;18.80;;;;;;4956377;28;20170;-71
2022/03/02 03:54:00;;;;;;;21.27;19.20;;;-1.90;18.70;;;;;;4956335;28;20213;-72
2022/03/02 03:56:27;;;;;;;22.77;20.47;;;-2.00;19.30;;;;;;4968055;28;20441;-72
2022/03/02 03:58:54;;;;;;;21.63;19.52;;;-1.90;19.40;;;;;;4975543;28;20199;-72
2022/03/02 04:01:21;;;;;;;21.98;20.05;;;-1.80;19.00;;;;;;4975450;28;20178;-72
2022/03/02 04:03:47;;;;;;;19.42;17.20;;;-1.90;19.10;;;;;;4990241;28;20643;-72
2022/03/02 04:06:13;;;;;;;23.10;19.20;;;-2.00;19.20;;;;;;4973957;28;20259;-72
2022/03/02 04:08:39;;;;;;;20.67;18.43;;;-2.00;19.80;;;;;;4975093;28;20721;-72
2022/03/02 04:11:04;;;;;;;20.93;18.67;;;-1.90;19.20;;;;;;4975316;28;20423;-72
2022/03/02 04:13:30;;;;;;;23.13;20.70;;;-1.90;19.50;;;;;;4975298;28;20796;-71
2022/03/02 04:15:55;;;;;;;21.57;19.00;;;-1.90;19.40;;;;;;4974971;28;20217;-72
2022/03/02 04:18:21;;;;;;;19.03;17.23;;;-1.90;19.50;;;;;;4973729;28;20205;-71
2022/03/02 04:20:46;;;;;;;20.57;18.90;;;-1.90;19.40;;;;;;4990061;28;20220;-72
2022/03/02 04:23:12;;;;;;;20.23;18.57;;;-1.90;19.50;;;;;;4975305;28;20170;-72
2022/03/02 04:25:38;;;;;;;19.20;17.20;;;-1.90;19.30;;;;;;4975211;28;20680;-72
2022/03/02 04:28:04;;;;;;;19.43;17.80;;;-1.90;19.60;;;;;;4974757;28;20256;-72
2022/03/02 04:30:30;;;;;;;19.80;18.20;;;-2.00;19.60;;;;;;4974565;28;20184;-71
2022/03/02 04:32:57;;;;;;;19.55;17.95;;;-1.90;19.50;;;;;;4974321;28;20173;-72
2022/03/02 04:35:23;;;;;;;18.95;17.15;;;-1.90;19.30;;;;;;4974683;28;20707;-73
2022/03/02 04:37:48;;;;;;;19.07;17.27;;;-1.90;19.30;;;;;;4989524;28;20284;-72
2022/03/02 04:40:14;;;;;;;21.07;19.10;;;-2.00;19.20;;;;;;4974852;28;20249;-72
2022/03/02 04:42:40;;;;;;;20.53;18.50;;;-2.00;19.20;;;;;;4974751;28;20184;-72
2022/03/02 04:45:06;;;;;;;21.17;19.30;;;-2.00;19.30;;;;;;4973353;28;20643;-72
2022/03/02 04:47:32;;;;;;;20.02;18.17;;;-2.00;19.20;;;;;;4974335;28;20436;-72
2022/03/02 04:49:58;;;;;;;20.17;18.50;;;-2.00;19.20;;;;;;4974563;28;20544;-73
2022/03/02 04:52:23;;;;;;;19.37;17.47;;;-2.00;19.30;;;;;;4974693;28;20417;-72
2022/03/02 04:55:07;;;;;;;17.17;15.80;;;-2.10;19.20;;;;;;4972981;28;20267;-72
2022/03/02 04:57:54;;;;;;;20.55;16.45;;;-2.10;19.10;;;;;;4974485;28;20707;-73
2022/03/02 05:00:28;;;;;;;16.70;15.30;;;-2.10;19.10;;;;;;4975339;28;20635;-72
2022/03/02 05:02:54;;;;;;;18.88;17.08;;;-2.10;19.10;;;;;;4974643;28;20244;-72
2022/03/02 05:05:22;;;;;;;18.48;16.77;;;-2.20;19.10;;;;;;4973494;28;20201;-73
2022/03/02 05:07:48;;;;;;;17.73;16.13;;;-2.20;19.40;;;;;;4974005;28;20177;-72
2022/03/02 05:10:16;;;;;;;17.58;16.08;;;-2.20;19.30;;;;;;4974240;28;20181;-72
2022/03/02 05:12:41;;;;;;;20.05;17.70;;;-2.30;19.60;;;;;;4989032;28;20181;-72
2022/03/02 05:15:08;;;;;;;19.00;17.17;;;-2.30;19.60;;;;;;4974008;28;20205;-72
2022/03/02 05:17:35;;;;;;;17.58;16.08;;;-2.30;19.60;;;;;;4973817;28;20176;-72
2022/03/02 05:20:01;;;;;;;17.25;15.85;;;-2.20;19.30;;;;;;4989030;28;20650;-72
2022/03/02 05:22:27;;;;;;;19.00;17.53;;;-2.20;19.40;;;;;;4988896;28;20192;-73
2022/03/02 05:24:52;;;;;;;19.47;17.50;;;-2.30;19.60;;;;;;4974020;28;20425;-72
2022/03/02 05:27:18;;;;;;;15.90;14.50;;;-2.30;19.60;;;;;;4973681;28;20209;-72
2022/03/02 05:29:43;;;;;;;19.80;17.90;;;-2.30;19.60;;;;;;4974000;28;20190;-73
2022/03/02 05:32:09;;;;;;;19.40;17.37;;;-2.20;19.50;;;;;;4973794;28;20196;-73
2022/03/02 05:34:35;;;;;;;17.07;15.70;;;-2.20;19.70;;;;;;4973768;28;20204;-73
2022/03/02 05:37:00;;;;;;;19.20;17.30;;;-2.20;19.50;;;;;;4973676;28;20228;-72
2022/03/02 05:39:26;;;;;;;17.43;15.83;;;-2.30;19.70;;;;;;4973932;28;20228;-73
2022/03/02 05:41:52;;;;;;;18.83;17.00;;;-2.30;19.60;;;;;;4973741;28;20181;-72
2022/03/02 05:44:18;;;;;;;17.70;16.40;;;-2.30;19.60;;;;;;4973704;28;20423;-72
2022/03/02 05:46:44;;;;;;;17.60;16.10;;;-2.30;19.70;;;;;;4973213;28;20217;-72
2022/03/02 05:49:10;;;;;;;19.03;16.17;;;-2.30;19.60;;;;;;4973653;28;20316;-72
2022/03/02 05:51:36;;;;;;;18.73;16.92;;;-2.30;19.60;;;;;;4973760;28;20169;-72
2022/03/02 05:54:03;;;;;;;18.83;16.95;;;-2.30;19.60;;;;;;4973461;28;20225;-72
2022/03/02 05:56:30;;;;;;;18.05;16.38;;;-2.20;19.90;;;;;;4973220;28;20202;-72
2022/03/02 05:58:55;;;;;;;16.50;15.00;;;-2.30;20.10;;;;;;4973753;28;20191;-72
2022/03/02 06:01:21;;;;;;;16.63;15.13;;;-2.30;20.10;;;;;;4973413;28;20647;-72
2022/03/02 06:03:49;;;;;;;18.43;16.83;;;-2.20;20.10;;;;;;4973384;28;20184;-71
2022/03/02 06:06:15;;;;;;;18.95;17.33;;;-2.20;20.20;;;;;;4971942;28;20229;-72
2022/03/02 06:08:42;;;;;;;16.55;15.38;;;-2.20;20.20;;;;;;4973129;28;20182;-72
2022/03/02 06:11:07;;;;;;;17.60;16.00;;;-2.10;19.80;;;;;;4973293;28;20177;-73
2022/03/02 06:13:34;;;;;;;18.93;17.17;;;-2.00;20.20;;;;;;4988105;28;20181;-70
2022/03/02 06:16:00;;;;;;;17.80;16.27;;;-1.90;20.90;;;;;;4973009;28;20467;-72
2022/03/02 06:18:26;;;;;;;17.52;15.82;;;-1.80;20.30;;;;;;4973014;28;20539;-72
2022/03/02 06:20:59;;;;;;;17.80;16.30;;;-1.70;20.00;;;;;;4973263;28;20627;-72
2022/03/02 06:23:26;;;;;;;18.45;16.58;;;-1.60;20.30;;;;;;4974313;28;20193;-72
2022/03/02 06:25:52;;;;;;;17.73;16.13;;;-1.50;20.10;;;;;;4977194;28;20205;-71
2022/03/02 06:28:17;;;;;;;22.23;17.63;;;-1.30;19.70;;;;;;4973307;28;20191;-72
2022/03/02 06:30:43;;;;;;;17.30;16.00;;;-1.20;19.70;;;;;;4973944;28;20232;-72
2022/03/02 06:33:10;;;;;;;18.43;16.83;;;-1.10;19.60;;;;;;4988369;28;20196;-71
2022/03/02 06:35:36;;;;;;;20.27;18.10;;;-1.10;19.20;;;;;;4972942;28;20205;-72
2022/03/02 06:38:01;;;;;;;18.97;17.03;;;-1.10;19.30;;;;;;4972687;28;20177;-71
2022/03/02 06:40:27;;;;;;;19.97;18.40;;;-0.90;19.10;;;;;;4972061;28;20181;-72
2022/03/02 06:42:59;;;;;;;20.70;18.60;;;-0.70;19.50;;;;;;4972870;28;20588;-71
2022/03/02 06:45:43;;;;;;;21.77;19.95;;;-0.70;18.50;;;;;;4972696;28;20605;-70
2022/03/02 06:48:43;;;;;;;20.58;18.80;;;-0.50;18.80;;;;;;4973058;28;20261;-71
2022/03/02 06:51:13;;;;;;;20.08;18.40;;;-0.50;18.80;;;;;;4975726;28;20193;-70
2022/03/02 06:53:44;;;;;;;24.02;21.52;;;-0.20;18.90;;;;;;4972793;28;20178;-71
2022/03/02 06:56:09;;;;;;;22.88;20.90;;;0.10;17.90;;;;;;4991176;28;20201;-72
2022/03/02 06:58:51;;;;;;;23.90;21.33;;;0.20;17.10;;;;;;4991450;28;20238;-71
2022/03/02 07:01:27;;;;;;;20.77;18.58;;;0.40;16.80;;;;;;4976741;28;20172;-71
2022/03/02 07:03:57;;;;;;;20.45;18.48;;;0.70;16.30;;;;;;4976748;28;20196;-71
2022/03/02 07:06:24;;;;;;;21.95;19.95;;;0.80;15.70;;;;;;4976324;28;20191;-71
2022/03/02 07:08:50;;;;;;;21.27;19.42;;;0.80;15.40;;;;;;4991490;28;20693;-72
2022/03/02 07:11:17;;;;;;;22.90;21.05;;;0.90;15.10;;;;;;4976388;28;20546;-72
2022/03/02 07:13:47;;;;;;;22.77;20.70;;;0.60;14.30;;;;;;4991052;28;20656;-72
2022/03/02 07:16:16;;;;;;;24.25;21.70;;;0.40;15.50;;;;;;4975930;28;20295;-72
2022/03/02 07:18:43;;;;;;;23.27;21.17;;;0.30;15.80;;;;;;4976190;28;20171;-72
2022/03/02 07:21:12;;;;;;;23.88;21.70;;;0.30;15.40;;;;;;4974860;28;20208;-72
2022/03/02 07:24:22;;;;;;;25.23;22.60;;;0.40;15.50;;;;;;4991049;28;20215;-71
2022/03/02 07:26:51;;;;;;;22.10;20.20;;;0.10;15.10;;;;;;4976142;28;20726;-71
2022/03/02 07:29:20;;;;;;;22.67;20.58;;;0.40;15.70;;;;;;4976189;28;20267;-71
2022/03/02 07:31:46;;;;;;;22.00;19.95;;;0.70;15.60;;;;;;4975042;28;20552;-70
2022/03/02 07:34:14;;;;;;;23.77;21.40;;;0.90;15.10;;;;;;4975976;28;20215;-71
2022/03/02 07:36:41;;;;;;;23.17;21.33;;;1.10;13.90;;;;;;4974660;28;20205;-72
2022/03/02 07:39:10;;;;;;;22.70;20.35;;;1.30;14.40;;;;;;4976101;28;20618;-70
2022/03/02 07:41:36;;;;;;;24.45;22.35;;;1.50;13.70;;;;;;4976691;28;20176;-70
2022/03/02 07:44:03;;;;;;;23.37;21.43;;;1.70;13.80;;;;;;4976162;28;20199;-70
2022/03/02 07:46:29;;;;;;;20.83;19.08;;;2.00;14.00;;;;;;4974362;28;20271;-70
2022/03/02 07:48:57;;;;;;;23.07;20.97;;;2.10;11.80;;;;;;4976016;28;20547;-71
2022/03/02 07:51:24;;;;;;;23.85;21.75;;;2.20;12.70;;;;;;4975851;28;20181;-70
2022/03/02 07:53:51;;;;;;;23.95;22.10;;;2.30;12.50;;;;;;4974401;28;20589;-71
2022/03/02 07:56:18;;;;;;;21.70;20.00;;;2.50;11.90;;;;;;4967419;28;20202;-71
2022/03/02 07:58:44;;;;;;;22.60;20.75;;;2.60;12.00;;;;;;4961790;28;20173;-71
2022/03/02 08:01:16;;;;;;;22.30;20.60;;;2.70;10.70;;;;;;4964857;28;20675;-71
2022/03/02 08:03:43;;;;;;;22.55;20.38;;;2.80;10.20;;;;;;4964960;28;20542;-69
2022/03/02 08:06:10;;;;;;;23.52;21.80;;;2.80;9.90;;;;;;4962253;28;20360;-70
2022/03/02 08:08:36;;;;;;;22.58;20.52;;;2.80;11.10;;;;;;4965352;28;20205;-71
2022/03/02 08:11:05;;;;;;;22.33;20.53;;;3.10;10.40;;;;;;4965956;28;20248;-69
2022/03/02 08:13:33;;;;;;;25.70;23.40;;;3.30;10.70;;;;;;4975995;28;20184;-71
2022/03/02 08:16:00;;;;;;;22.02;20.20;;;3.40;10.20;;;;;;4973491;28;20220;-71
2022/03/02 08:18:27;;;;;;;22.33;20.45;;;3.50;10.70;;;;;;4973444;28;20185;-71
2022/03/02 08:20:55;;;;;;;23.77;21.98;;;3.00;10.30;;;;;;4969899;28;20215;-70
2022/03/02 08:23:23;;;;;;;21.52;19.95;;;2.80;10.20;;;;;;4969307;28;20182;-69
2022/03/02 08:25:52;;;;;;;21.63;20.08;;;2.90;10.70;;;;;;4965978;28;20197;-70
2022/03/02 08:28:19;;;;;;;24.38;22.08;;;3.20;10.50;;;;;;4967218;28;20196;-70
2022/03/02 08:30:54;;;;;;;22.75;20.70;;;3.10;9.50;;;;;;4964939;28;20182;-71
2022/03/02 08:33:26;;;;;;;23.27;21.45;;;3.10;10.40;;;;;;4972928;28;20220;-69
2022/03/02 08:35:54;;;;;;;24.38;22.13;;;3.30;10.50;;;;;;4977040;28;20249;-69
2022/03/02 08:38:21;;;;;;;20.33;19.02;;;3.20;10.50;;;;;;4962388;28;20173;-69
2022/03/02 08:40:46;;;;;;;22.27;20.67;;;3.40;10.60;;;;;;4964261;28;20194;-69
2022/03/02 08:43:16;;;;;;;22.70;20.53;;;3.80;10.80;;;;;;4964965;28;20607;-69
2022/03/02 08:45:48;;;;;;;23.23;21.23;;;4.10;8.90;;;;;;4964604;28;20863;-71
2022/03/02 08:48:15;;;;;;;23.38;21.40;;;4.40;9.30;;;;;;4963128;28;20261;-70
2022/03/02 08:50:42;;;;;;;24.00;21.55;;;4.30;8.50;;;;;;4964780;28;20564;-69
2022/03/02 08:53:08;;;;;;;21.40;19.70;;;4.60;9.00;;;;;;4973374;28;20255;-69
2022/03/02 08:55:34;;;;;;;23.23;21.63;;;4.80;8.70;;;;;;4974351;28;20265;-69
2022/03/02 08:58:01;;;;;;;21.57;19.97;;;5.10;8.00;;;;;;4974187;28;20184;-76
2022/03/02 09:00:26;;;;;;;23.08;21.40;;;5.00;7.80;;;;;;4974464;28;20171;-70
2022/03/02 09:02:52;;;;;;;23.87;21.97;;;4.50;7.70;;;;;;4957543;28;20182;-70
2022/03/02 09:05:18;;;;;;;21.25;19.67;;;4.60;7.00;;;;;;4954975;28;20336;-69
2022/03/02 09:07:45;;;;;;;23.13;21.23;;;4.80;7.80;;;;;;4954999;28;20258;-69
2022/03/02 09:10:12;;;;;;;21.52;19.88;;;5.00;7.20;;;;;;4955136;29;20194;-68
2022/03/02 09:12:41;;;;;;;22.05;20.27;;;5.30;7.40;;;;;;4953808;28;20191;-69
2022/03/02 09:15:07;;;;;;;23.23;21.53;;;5.40;6.50;;;;;;4955963;29;20688;-70
2022/03/02 09:17:33;;;;;;;23.02;21.35;;;5.60;6.60;;;;;;4954131;28;20429;-68
2022/03/02 09:19:58;;;;;;;20.23;18.73;;;5.70;5.70;;;;;;4954880;29;20662;-70
2022/03/02 09:22:27;;;;;;;22.13;20.50;;;5.80;5.30;;;;;;4954904;28;20619;-69
2022/03/02 09:24:53;;;;;;;24.20;22.13;;;6.00;4.90;;;;;;4954765;28;20212;-70
2022/03/02 09:27:27;;;;;;;21.30;20.07;;;6.30;5.20;;;;;;4954506;28;20440;-69
2022/03/02 09:29:55;;;;;;;22.47;20.77;;;6.30;5.00;;;;;;4955005;29;20420;-69
2022/03/02 09:32:23;;;;;;;21.87;20.33;;;6.40;4.80;;;;;;4969689;28;20418;-69
2022/03/02 09:34:53;;;;;;;21.20;19.57;;;6.40;4.60;;;;;;4954723;29;20783;-70
2022/03/02 09:37:18;;;;;;;22.70;21.00;;;6.30;5.80;;;;;;4958609;28;20961;-69
2022/03/02 09:39:44;;;;;;;23.70;21.50;;;6.60;5.00;;;;;;4958606;28;20421;-71
2022/03/02 09:42:39;;;;;;;22.77;21.17;;;6.80;4.50;;;;;;4958196;29;20769;-69
2022/03/02 09:45:08;;;;;;;22.47;20.77;;;7.00;4.00;;;;;;4957978;28;20217;-70
2022/03/02 09:47:44;;;;;;;22.87;21.23;;;6.90;4.00;;;;;;4993679;23;20571;-70
2022/03/02 09:50:17;;;;;;;21.37;19.93;;;7.10;4.10;;;;;;4973865;28;20562;-71
2022/03/02 09:52:47;;;;;;;22.57;20.70;;;7.30;3.60;;;;;;4973923;28;20480;-70
2022/03/02 09:55:16;;;;;;;22.17;20.70;;;7.30;2.50;;;;;;4973807;28;20423;-70
2022/03/02 09:57:51;;;;;;;22.70;21.00;;;7.10;3.10;;;;;;4992825;28;20547;-70
2022/03/02 10:00:19;;;;;;;24.30;22.50;;;7.10;3.40;;;;;;4992961;28;20427;-70
2022/03/02 10:02:47;;;;;;;23.10;21.30;;;6.90;3.70;;;;;;4991631;28;20928;-70
2022/03/02 10:05:35;;;;;;;23.60;21.70;;;6.60;3.80;;;;;;4992948;28;20554;-71
2022/03/02 10:08:07;;;;;;;24.33;22.00;;;6.70;3.80;;;;;;4989808;28;20460;-69
2022/03/02 10:10:36;;;;;;;24.30;22.37;;;6.80;3.90;;;;;;4972976;28;20499;-69
2022/03/02 10:13:08;;;;;;;23.40;21.70;;;6.80;3.90;;;;;;4993193;28;20988;-70
2022/03/02 10:15:34;;;;;;;24.40;22.57;;;7.00;4.40;;;;;;4992923;28;20835;-70
2022/03/02 10:18:02;;;;;;;25.50;22.97;;;7.30;3.40;;;;;;4992638;28;20979;-69
2022/03/02 10:20:34;;;;;;;24.77;22.47;;;7.00;4.00;;;;;;4991460;28;20438;-70
2022/03/02 10:23:14;;;;;;;21.60;20.07;;;6.90;4.00;;;;;;4993226;28;20443;-69
2022/03/02 10:26:00;;;;;;;22.17;20.77;;;6.80;3.90;;;;;;4993744;28;21023;-69
2022/03/02 10:28:49;;;;;;;23.33;21.00;;;6.40;4.20;;;;;;4993336;28;21132;-69
2022/03/02 10:31:42;;;;;;;22.53;20.90;;;6.70;5.20;;;;;;4994495;28;20408;-69
2022/03/02 10:34:29;;;;;;;24.00;22.00;;;6.80;3.90;;;;;;4993994;28;20422;-69
2022/03/02 10:37:25;;;;;;;21.70;19.90;;;6.80;4.20;;;;;;5008575;28;20794;-70
2022/03/02 10:40:12;;;;;;;20.60;19.27;;;6.80;4.90;;;;;;4992052;28;20435;-69
2022/03/02 10:42:41;;;;;;;22.53;21.00;;;7.20;4.90;;;;;;4993113;28;20432;-69
2022/03/02 10:45:11;;;;;;;19.20;17.83;;;7.50;4.30;;;;;;4993117;28;20466;-69
2022/03/02 10:48:01;;;;;;;21.53;19.40;;;7.60;4.40;;;;;;4979580;28;20516;-69
2022/03/02 10:50:31;;;;;;;22.67;21.10;;;8.20;4.80;;;;;;4973378;28;20409;-70
2022/03/02 10:52:58;;;;;;;21.03;19.63;;;8.60;3.70;;;;;;4973469;28;20407;-69
2022/03/02 10:55:24;;;;;;;21.13;19.90;;;9.00;3.50;;;;;;4973003;28;20414;-69
2022/03/02 10:57:52;;;;;;;21.77;20.17;;;9.30;3.20;;;;;;4973272;28;20424;-70
2022/03/02 11:00:19;;;;;;;22.67;20.77;;;9.50;2.50;;;;;;4973380;28;20506;-71
2022/03/02 11:02:48;;;;;;;22.97;21.03;;;9.70;2.00;;;;;;4972848;28;20483;-69
2022/03/02 11:05:20;;;;;;;22.53;20.87;;;9.80;1.90;;;;;;4982634;28;20471;-70
2022/03/02 11:07:47;;;;;;;22.07;20.50;;;10.00;1.00;;;;;;4982250;28;20497;-69
2022/03/02 11:10:16;;;;;;;24.40;21.87;;;10.10;1.00;;;;;;4982806;28;20912;-69
2022/03/02 11:12:44;;;;;;;24.60;22.67;;;10.40;1.00;;;;;;4985517;28;20418;-69
2022/03/02 11:15:11;;;;;;;22.47;20.93;;;10.50;1.00;;;;;;4973681;28;20431;-70
2022/03/02 11:17:56;;;;;;;22.60;20.90;;;10.60;1.00;;;;;;4972391;28;20530;-68
2022/03/02 11:20:24;;;;;;;22.83;20.93;;;10.60;1.10;;;;;;4972992;28;20431;-69
2022/03/02 11:23:02;;;;;;;24.50;22.37;;;10.90;1.00;;;;;;4988737;28;20526;-69
2022/03/02 11:25:53;;;;;;;23.10;21.50;;;10.50;1.00;;;;;;4992342;28;20465;-69
2022/03/02 11:28:21;;;;;;;22.93;21.53;;;10.30;1.00;;;;;;4991756;28;20530;-70
2022/03/02 11:31:02;;;;;;;21.33;20.00;;;10.40;1.00;;;;;;4990751;28;20431;-70
2022/03/02 11:33:29;;;;;;;23.13;21.57;;;10.50;1.00;;;;;;4992076;28;20769;-70
2022/03/02 11:35:59;;;;;;;23.20;21.40;;;10.40;1.00;;;;;;4992116;28;20874;-71
2022/03/02 11:38:30;;;;;;;23.70;22.07;;;10.60;1.00;;;;;;4990536;28;20818;-69
2022/03/02 11:40:56;;;;;;;22.87;21.33;;;10.90;1.00;;;;;;4993540;28;20515;-70
2022/03/02 11:43:28;;;;;;;22.97;20.87;;;11.10;1.00;;;;;;4989099;28;20427;-70
2022/03/02 11:45:58;;;;;;;21.63;20.40;;;10.50;1.00;;;;;;4975689;28;20471;-70
2022/03/02 11:48:26;;;;;;;22.00;20.50;;;10.80;1.00;;;;;;4975324;28;20813;-69
2022/03/02 11:51:06;;;;;;;22.40;20.83;;;10.80;1.00;;;;;;4975546;28;20431;-70
2022/03/02 11:53:41;;;;;;;21.37;19.97;;;10.90;1.00;;;;;;4975658;28;20439;-69
2022/03/02 11:56:09;;;;;;;23.27;21.77;;;11.30;1.00;;;;;;4975587;28;20515;-70
2022/03/02 11:59:02;;;;;;;24.30;22.17;;;11.20;1.00;;;;;;4975582;28;20421;-70
2022/03/02 12:01:53;;;;;;;21.73;20.33;;;11.30;1.00;;;;;;4990760;28;20431;-70
2022/03/02 12:04:19;;;;;;;22.10;20.43;;;11.60;1.00;;;;;;4974251;28;20456;-70
2022/03/02 12:06:48;;;;;;;23.97;22.33;;;11.20;1.00;;;;;;4974171;28;20949;-70
2022/03/02 12:09:27;;;;;;;20.73;19.33;;;11.30;1.00;;;;;;4975767;28;20417;-70
2022/03/02 12:12:09;;;;;;;23.07;21.20;;;11.40;1.00;;;;;;4975605;28;20413;-70
2022/03/02 12:14:44;;;;;;;20.40;19.20;;;10.90;1.00;;;;;;4975456;28;20428;-69
2022/03/02 12:17:24;;;;;;;22.53;20.23;;;10.30;1.00;;;;;;4975019;28;20477;-69
2022/03/02 12:19:55;;;;;;;20.80;19.20;;;10.10;1.00;;;;;;4975174;28;20430;-70
2022/03/02 12:22:22;;;;;;;19.03;18.03;;;10.00;1.00;;;;;;4975232;28;20462;-69
2022/03/02 12:24:48;;;;;;;21.70;20.10;;;9.60;1.00;;;;;;4974959;28;20459;-69
2022/03/02 12:27:15;;;;;;;21.90;20.40;;;9.70;1.00;;;;;;4989820;28;20436;-70
2022/03/02 12:29:42;;;;;;;21.70;19.97;;;9.80;1.00;;;;;;4975042;28;20880;-69
2022/03/02 12:32:11;;;;;;;21.13;19.60;;;9.70;1.00;;;;;;4974976;28;20424;-70
2022/03/02 12:34:40;;;;;;;22.43;20.87;;;9.40;1.00;;;;;;4975278;28;20446;-69
2022/03/02 12:37:07;;;;;;;23.50;21.77;;;9.60;1.00;;;;;;4975059;28;20509;-70
2022/03/02 12:39:34;;;;;;;21.10;19.40;;;9.40;1.00;;;;;;4975088;28;20423;-69
2022/03/02 12:42:04;;;;;;;22.37;20.37;;;9.40;1.00;;;;;;4974958;28;20419;-70